BAW253 MYNN-MWCR
Flight info
| Callsign | BAW253 |
|---|---|
| Flight time | 1h 4m |
| Altitude | 37000 |
| Route | JEFRY G437 DYNAH UG437 ULBAS UM330 KANEX GORAN3 |
| Aircraft | B772/H-SDE1E3FGHIJ3J5J6M1M2P2RWXYZ/LB1D1 |
Departure
| Time | 2026-05-06 16:25 |
|---|---|
| Airport | Lynden Pindling International Airport (MYNN) |
Arrival
| Time | 2026-05-06 17:29 |
|---|---|
| Airport | Owen Roberts International Airport (MWCR) |
| Time | Latitude | Longitude | Altitude | Speed | Heading |
|---|---|---|---|---|---|
| 2026-05-06 15:57 | 25.04867 | -77.46827 | 22 ft | 0 kts | 146° |
| 2026-05-06 16:15 | 25.04869 | -77.46828 | 21 ft | 2 kts | 146° |
| 2026-05-06 16:15 | 25.04890 | -77.46844 | 25 ft | 4 kts | 148° |
| 2026-05-06 16:15 | 25.04913 | -77.46859 | 24 ft | 4 kts | 156° |
| 2026-05-06 16:16 | 25.04934 | -77.46866 | 25 ft | 4 kts | 191° |
| 2026-05-06 16:16 | 25.04942 | -77.46864 | 25 ft | 1 kts | 245° |
| 2026-05-06 16:16 | 25.04943 | -77.46863 | 25 ft | 0 kts | 245° |
| 2026-05-06 16:19 | 25.04939 | -77.46872 | 24 ft | 4 kts | 245° |
| 2026-05-06 16:19 | 25.04930 | -77.46894 | 25 ft | 5 kts | 245° |
| 2026-05-06 16:20 | 25.04910 | -77.46937 | 26 ft | 6 kts | 237° |
| 2026-05-06 16:20 | 25.04895 | -77.46982 | 26 ft | 7 kts | 279° |
| 2026-05-06 16:20 | 25.04922 | -77.47023 | 27 ft | 7 kts | 314° |
| 2026-05-06 16:20 | 25.04955 | -77.47060 | 26 ft | 7 kts | 314° |
| 2026-05-06 16:21 | 25.04988 | -77.47098 | 26 ft | 7 kts | 314° |
| 2026-05-06 16:21 | 25.05021 | -77.47135 | 23 ft | 7 kts | 314° |
| 2026-05-06 16:21 | 25.05054 | -77.47173 | 27 ft | 7 kts | 314° |
| 2026-05-06 16:21 | 25.05088 | -77.47210 | 26 ft | 7 kts | 315° |
| 2026-05-06 16:22 | 25.05122 | -77.47247 | 24 ft | 7 kts | 315° |
| 2026-05-06 16:22 | 25.05156 | -77.47286 | 26 ft | 7 kts | 314° |
| 2026-05-06 16:22 | 25.05191 | -77.47325 | 26 ft | 7 kts | 314° |
| 2026-05-06 16:22 | 25.05218 | -77.47369 | 22 ft | 7 kts | 290° |
| 2026-05-06 16:23 | 25.05217 | -77.47422 | 23 ft | 7 kts | 254° |
| 2026-05-06 16:23 | 25.05202 | -77.47473 | 27 ft | 7 kts | 252° |
| 2026-05-06 16:23 | 25.05180 | -77.47521 | 28 ft | 7 kts | 229° |
| 2026-05-06 16:23 | 25.05141 | -77.47521 | 29 ft | 6 kts | 144° |
| 2026-05-06 16:24 | 25.05115 | -77.47494 | 27 ft | 3 kts | 135° |
| 2026-05-06 16:24 | 25.05060 | -77.47433 | 27 ft | 34 kts | 135° |
| 2026-05-06 16:24 | 25.04653 | -77.46983 | 29 ft | 130 kts | 134° |
| 2026-05-06 16:24 | 25.03828 | -77.46078 | 235 ft | 190 kts | 135° |
| 2026-05-06 16:25 | 25.02852 | -77.45046 | 1367 ft | 197 kts | 136° |
| 2026-05-06 16:25 | 25.01834 | -77.43923 | 2105 ft | 219 kts | 134° |
| 2026-05-06 16:25 | 25.00692 | -77.42650 | 2477 ft | 254 kts | 135° |
| 2026-05-06 16:25 | 24.99421 | -77.41214 | 3238 ft | 264 kts | 135° |
| 2026-05-06 16:26 | 24.97905 | -77.40073 | 4037 ft | 270 kts | 164° |
| 2026-05-06 16:26 | 24.96053 | -77.40007 | 5019 ft | 269 kts | 197° |
| 2026-05-06 16:26 | 24.94372 | -77.40872 | 5907 ft | 267 kts | 212° |
| 2026-05-06 16:26 | 24.92763 | -77.41950 | 6768 ft | 273 kts | 213° |
| 2026-05-06 16:27 | 24.91140 | -77.43059 | 7642 ft | 276 kts | 213° |
| 2026-05-06 16:27 | 24.89501 | -77.44186 | 8510 ft | 279 kts | 214° |
| 2026-05-06 16:27 | 24.87842 | -77.45326 | 9357 ft | 282 kts | 214° |
| 2026-05-06 16:27 | 24.86189 | -77.46460 | 10168 ft | 284 kts | 214° |
| 2026-05-06 16:28 | 24.84506 | -77.47610 | 10919 ft | 287 kts | 214° |
| 2026-05-06 16:28 | 24.82769 | -77.48796 | 11479 ft | 303 kts | 214° |
| 2026-05-06 16:28 | 24.80910 | -77.50065 | 11872 ft | 325 kts | 214° |
| 2026-05-06 16:28 | 24.78916 | -77.51423 | 12279 ft | 350 kts | 214° |
| 2026-05-06 16:29 | 24.76803 | -77.52858 | 12664 ft | 359 kts | 214° |
| 2026-05-06 16:29 | 24.74658 | -77.54309 | 13049 ft | 364 kts | 214° |
| 2026-05-06 16:29 | 24.72493 | -77.55772 | 13424 ft | 366 kts | 214° |
| 2026-05-06 16:29 | 24.70312 | -77.57247 | 13805 ft | 369 kts | 214° |
| 2026-05-06 16:30 | 24.68116 | -77.58732 | 14155 ft | 371 kts | 214° |
| 2026-05-06 16:30 | 24.66652 | -77.59722 | 14385 ft | 373 kts | 214° |
| 2026-05-06 16:30 | 24.63711 | -77.61711 | 14839 ft | 376 kts | 214° |
| 2026-05-06 16:30 | 24.61475 | -77.63222 | 15183 ft | 379 kts | 214° |
| 2026-05-06 16:31 | 24.59215 | -77.64742 | 15542 ft | 381 kts | 213° |
| 2026-05-06 16:31 | 24.56839 | -77.66095 | 15893 ft | 386 kts | 206° |
| 2026-05-06 16:31 | 24.54353 | -77.67250 | 16255 ft | 389 kts | 205° |
| 2026-05-06 16:31 | 24.51842 | -77.68394 | 16625 ft | 393 kts | 205° |
| 2026-05-06 16:32 | 24.49305 | -77.69556 | 16993 ft | 396 kts | 206° |
| 2026-05-06 16:32 | 24.46752 | -77.70740 | 17379 ft | 399 kts | 206° |
| 2026-05-06 16:32 | 24.44214 | -77.71924 | 17748 ft | 402 kts | 206° |
| 2026-05-06 16:32 | 24.41630 | -77.73129 | 18129 ft | 405 kts | 206° |
| 2026-05-06 16:33 | 24.39014 | -77.74344 | 18501 ft | 408 kts | 206° |
| 2026-05-06 16:33 | 24.36385 | -77.75561 | 18839 ft | 411 kts | 206° |
| 2026-05-06 16:33 | 24.33745 | -77.76781 | 19172 ft | 413 kts | 206° |
| 2026-05-06 16:34 | 24.28422 | -77.79240 | 19871 ft | 416 kts | 206° |
| 2026-05-06 16:34 | 24.25780 | -77.80461 | 20212 ft | 418 kts | 206° |
| 2026-05-06 16:34 | 24.23092 | -77.81704 | 20555 ft | 420 kts | 206° |
| 2026-05-06 16:34 | 24.20391 | -77.82952 | 20904 ft | 422 kts | 206° |
| 2026-05-06 16:35 | 24.17677 | -77.84205 | 21277 ft | 424 kts | 206° |
| 2026-05-06 16:35 | 24.14950 | -77.85463 | 21646 ft | 426 kts | 206° |
| 2026-05-06 16:35 | 24.12206 | -77.86729 | 22014 ft | 429 kts | 206° |
| 2026-05-06 16:35 | 24.09445 | -77.88002 | 22390 ft | 431 kts | 207° |
| 2026-05-06 16:36 | 24.06670 | -77.89282 | 22771 ft | 434 kts | 207° |
| 2026-05-06 16:36 | 24.03881 | -77.90567 | 23152 ft | 436 kts | 207° |
| 2026-05-06 16:36 | 24.01116 | -77.91840 | 23521 ft | 437 kts | 207° |
| 2026-05-06 16:36 | 23.98305 | -77.93134 | 23890 ft | 439 kts | 207° |
| 2026-05-06 16:37 | 23.95480 | -77.94433 | 24218 ft | 441 kts | 207° |
| 2026-05-06 16:37 | 23.92687 | -77.95821 | 24547 ft | 441 kts | 210° |
| 2026-05-06 16:37 | 23.89921 | -77.97286 | 24887 ft | 443 kts | 210° |
| 2026-05-06 16:37 | 23.87141 | -77.98784 | 25227 ft | 446 kts | 210° |
| 2026-05-06 16:38 | 23.84345 | -78.00292 | 25581 ft | 450 kts | 210° |
| 2026-05-06 16:38 | 23.81516 | -78.01807 | 25933 ft | 454 kts | 210° |
| 2026-05-06 16:38 | 23.78667 | -78.03325 | 26283 ft | 457 kts | 210° |
| 2026-05-06 16:38 | 23.75833 | -78.04828 | 26633 ft | 461 kts | 210° |
| 2026-05-06 16:39 | 23.72939 | -78.06361 | 27005 ft | 464 kts | 210° |
| 2026-05-06 16:39 | 23.70015 | -78.07909 | 27376 ft | 467 kts | 210° |
| 2026-05-06 16:39 | 23.67080 | -78.09463 | 27746 ft | 470 kts | 210° |
| 2026-05-06 16:39 | 23.64129 | -78.11021 | 28124 ft | 473 kts | 210° |
| 2026-05-06 16:40 | 23.61155 | -78.12590 | 28508 ft | 475 kts | 210° |
| 2026-05-06 16:40 | 23.58163 | -78.14168 | 28899 ft | 478 kts | 210° |
| 2026-05-06 16:40 | 23.55200 | -78.15729 | 29280 ft | 481 kts | 210° |
| 2026-05-06 16:40 | 23.52176 | -78.17323 | 29680 ft | 483 kts | 210° |
| 2026-05-06 16:41 | 23.49131 | -78.18926 | 30086 ft | 486 kts | 210° |
| 2026-05-06 16:41 | 23.46072 | -78.20537 | 30439 ft | 490 kts | 210° |
| 2026-05-06 16:41 | 23.42994 | -78.22157 | 30789 ft | 493 kts | 210° |
| 2026-05-06 16:41 | 23.39894 | -78.23788 | 31133 ft | 497 kts | 210° |
| 2026-05-06 16:42 | 23.36765 | -78.25433 | 31492 ft | 501 kts | 211° |
| 2026-05-06 16:42 | 23.33616 | -78.27087 | 31856 ft | 504 kts | 211° |
| 2026-05-06 16:42 | 23.30445 | -78.28753 | 32213 ft | 508 kts | 211° |
| 2026-05-06 16:42 | 23.27251 | -78.30428 | 32576 ft | 511 kts | 211° |
| 2026-05-06 16:43 | 23.24034 | -78.32115 | 32959 ft | 514 kts | 211° |
| 2026-05-06 16:43 | 23.20839 | -78.33790 | 33326 ft | 517 kts | 211° |
| 2026-05-06 16:43 | 23.17594 | -78.35490 | 33707 ft | 519 kts | 211° |
| 2026-05-06 16:43 | 23.14337 | -78.37195 | 34087 ft | 521 kts | 211° |
| 2026-05-06 16:44 | 23.11064 | -78.38908 | 34433 ft | 522 kts | 211° |
| 2026-05-06 16:44 | 23.07787 | -78.40621 | 34778 ft | 522 kts | 211° |
| 2026-05-06 16:44 | 23.04512 | -78.42334 | 35125 ft | 523 kts | 211° |
| 2026-05-06 16:44 | 23.01228 | -78.44050 | 35471 ft | 523 kts | 211° |
| 2026-05-06 16:45 | 22.97952 | -78.45762 | 35833 ft | 522 kts | 211° |
| 2026-05-06 16:45 | 22.94721 | -78.47452 | 36182 ft | 521 kts | 211° |
| 2026-05-06 16:45 | 22.91459 | -78.49158 | 36518 ft | 521 kts | 211° |
| 2026-05-06 16:45 | 22.88191 | -78.50867 | 36768 ft | 521 kts | 211° |
| 2026-05-06 16:46 | 22.84938 | -78.52567 | 36980 ft | 518 kts | 211° |
| 2026-05-06 16:46 | 22.78479 | -78.55938 | 37070 ft | 511 kts | 211° |
| 2026-05-06 16:47 | 22.72065 | -78.59279 | 37088 ft | 511 kts | 211° |
| 2026-05-06 16:47 | 22.65643 | -78.62617 | 37087 ft | 512 kts | 211° |
| 2026-05-06 16:48 | 22.59218 | -78.65952 | 37084 ft | 512 kts | 211° |
| 2026-05-06 16:48 | 22.52823 | -78.69270 | 37078 ft | 512 kts | 211° |
| 2026-05-06 16:49 | 22.46389 | -78.72605 | 37084 ft | 512 kts | 211° |
| 2026-05-06 16:49 | 22.39956 | -78.75936 | 37078 ft | 512 kts | 211° |
| 2026-05-06 16:50 | 22.33531 | -78.79260 | 37082 ft | 512 kts | 211° |
| 2026-05-06 16:50 | 22.27144 | -78.82560 | 37071 ft | 511 kts | 211° |
| 2026-05-06 16:51 | 22.20724 | -78.85874 | 37075 ft | 510 kts | 211° |
| 2026-05-06 16:51 | 22.14319 | -78.89177 | 37076 ft | 509 kts | 211° |
| 2026-05-06 16:52 | 22.07909 | -78.92480 | 37073 ft | 509 kts | 211° |
| 2026-05-06 16:52 | 22.01553 | -78.95752 | 37063 ft | 509 kts | 211° |
| 2026-05-06 16:53 | 21.95148 | -78.99045 | 37067 ft | 509 kts | 210° |
| 2026-05-06 16:53 | 21.88754 | -79.02330 | 37057 ft | 509 kts | 210° |
| 2026-05-06 16:54 | 21.82359 | -79.05612 | 37067 ft | 509 kts | 210° |
| 2026-05-06 16:54 | 21.75953 | -79.08896 | 37063 ft | 509 kts | 210° |
| 2026-05-06 16:55 | 21.69755 | -79.12501 | 37072 ft | 502 kts | 218° |
| 2026-05-06 16:55 | 21.64305 | -79.17100 | 37068 ft | 495 kts | 227° |
| 2026-05-06 16:56 | 21.59226 | -79.22033 | 37054 ft | 495 kts | 227° |
| 2026-05-06 16:56 | 21.54094 | -79.26990 | 37062 ft | 495 kts | 227° |
| 2026-05-06 16:57 | 21.48942 | -79.31909 | 37061 ft | 495 kts | 226° |
| 2026-05-06 16:57 | 21.43771 | -79.36829 | 36945 ft | 499 kts | 225° |
| 2026-05-06 16:58 | 21.38525 | -79.41817 | 37068 ft | 508 kts | 224° |
| 2026-05-06 16:58 | 21.33263 | -79.46818 | 37071 ft | 509 kts | 224° |
| 2026-05-06 16:59 | 21.28028 | -79.51778 | 37060 ft | 497 kts | 224° |
| 2026-05-06 16:59 | 21.22839 | -79.56694 | 37075 ft | 498 kts | 224° |
| 2026-05-06 17:00 | 21.17693 | -79.61566 | 37063 ft | 491 kts | 224° |
| 2026-05-06 17:00 | 21.12570 | -79.66415 | 37078 ft | 491 kts | 224° |
| 2026-05-06 17:01 | 21.07442 | -79.71264 | 37069 ft | 492 kts | 224° |
| 2026-05-06 17:01 | 21.02329 | -79.76094 | 37073 ft | 492 kts | 224° |
| 2026-05-06 17:02 | 20.97195 | -79.80938 | 37077 ft | 492 kts | 224° |
| 2026-05-06 17:02 | 20.92058 | -79.85780 | 37070 ft | 492 kts | 224° |
| 2026-05-06 17:03 | 20.86924 | -79.90614 | 37071 ft | 491 kts | 224° |
| 2026-05-06 17:03 | 20.81819 | -79.95417 | 37073 ft | 491 kts | 224° |
| 2026-05-06 17:04 | 20.76720 | -80.00208 | 37007 ft | 481 kts | 224° |
| 2026-05-06 17:04 | 20.71765 | -80.04858 | 36702 ft | 469 kts | 224° |
| 2026-05-06 17:04 | 20.69315 | -80.07158 | 36385 ft | 469 kts | 224° |
| 2026-05-06 17:05 | 20.66857 | -80.09465 | 35930 ft | 471 kts | 224° |
| 2026-05-06 17:05 | 20.64394 | -80.11777 | 35424 ft | 474 kts | 224° |
| 2026-05-06 17:05 | 20.61910 | -80.14107 | 34908 ft | 475 kts | 223° |
| 2026-05-06 17:05 | 20.59421 | -80.16439 | 34208 ft | 477 kts | 223° |
| 2026-05-06 17:06 | 20.56931 | -80.18770 | 33575 ft | 475 kts | 223° |
| 2026-05-06 17:06 | 20.54460 | -80.21082 | 33017 ft | 471 kts | 223° |
| 2026-05-06 17:06 | 20.52004 | -80.23378 | 32469 ft | 467 kts | 223° |
| 2026-05-06 17:06 | 20.49604 | -80.25621 | 31947 ft | 463 kts | 223° |
| 2026-05-06 17:07 | 20.47193 | -80.27874 | 31427 ft | 459 kts | 223° |
| 2026-05-06 17:07 | 20.44800 | -80.30110 | 30908 ft | 455 kts | 223° |
| 2026-05-06 17:07 | 20.42426 | -80.32327 | 30378 ft | 452 kts | 223° |
| 2026-05-06 17:07 | 20.40058 | -80.34537 | 29819 ft | 450 kts | 223° |
| 2026-05-06 17:08 | 20.37711 | -80.36728 | 29194 ft | 447 kts | 223° |
| 2026-05-06 17:08 | 20.35405 | -80.38879 | 28626 ft | 444 kts | 223° |
| 2026-05-06 17:08 | 20.33093 | -80.41035 | 28061 ft | 441 kts | 223° |
| 2026-05-06 17:08 | 20.30786 | -80.43185 | 27513 ft | 438 kts | 223° |
| 2026-05-06 17:09 | 20.28501 | -80.45314 | 26979 ft | 435 kts | 223° |
| 2026-05-06 17:09 | 20.26990 | -80.46720 | 26632 ft | 434 kts | 223° |
| 2026-05-06 17:09 | 20.24726 | -80.48829 | 26113 ft | 432 kts | 223° |
| 2026-05-06 17:09 | 20.22468 | -80.50930 | 25583 ft | 430 kts | 223° |
| 2026-05-06 17:10 | 20.20217 | -80.53024 | 25059 ft | 429 kts | 223° |
| 2026-05-06 17:10 | 20.17235 | -80.55798 | 24378 ft | 429 kts | 223° |
| 2026-05-06 17:10 | 20.14989 | -80.57886 | 23870 ft | 428 kts | 223° |
| 2026-05-06 17:10 | 20.12743 | -80.59973 | 23297 ft | 428 kts | 223° |
| 2026-05-06 17:11 | 20.11259 | -80.61351 | 22934 ft | 427 kts | 223° |
| 2026-05-06 17:11 | 20.09029 | -80.63422 | 22420 ft | 425 kts | 223° |
| 2026-05-06 17:11 | 20.06807 | -80.65484 | 21917 ft | 422 kts | 223° |
| 2026-05-06 17:11 | 20.04598 | -80.67534 | 21434 ft | 420 kts | 223° |
| 2026-05-06 17:12 | 20.02400 | -80.69573 | 20946 ft | 418 kts | 223° |
| 2026-05-06 17:12 | 20.00208 | -80.71609 | 20465 ft | 416 kts | 224° |
| 2026-05-06 17:12 | 19.98188 | -80.73775 | 19980 ft | 410 kts | 230° |
| 2026-05-06 17:12 | 19.96362 | -80.76087 | 19498 ft | 406 kts | 233° |
| 2026-05-06 17:13 | 19.94618 | -80.78436 | 19017 ft | 404 kts | 234° |
| 2026-05-06 17:13 | 19.92893 | -80.80782 | 18541 ft | 401 kts | 233° |
| 2026-05-06 17:13 | 19.91169 | -80.83105 | 18014 ft | 399 kts | 233° |
| 2026-05-06 17:13 | 19.89438 | -80.85402 | 17502 ft | 396 kts | 233° |
| 2026-05-06 17:14 | 19.87734 | -80.87638 | 17019 ft | 393 kts | 232° |
| 2026-05-06 17:14 | 19.86013 | -80.89877 | 16520 ft | 389 kts | 232° |
| 2026-05-06 17:14 | 19.84299 | -80.92098 | 16061 ft | 386 kts | 232° |
| 2026-05-06 17:14 | 19.82601 | -80.94291 | 15577 ft | 383 kts | 232° |
| 2026-05-06 17:15 | 19.80909 | -80.96474 | 15108 ft | 380 kts | 232° |
| 2026-05-06 17:15 | 19.79232 | -80.98637 | 14623 ft | 378 kts | 232° |
| 2026-05-06 17:15 | 19.77565 | -81.00786 | 14144 ft | 376 kts | 232° |
| 2026-05-06 17:15 | 19.75905 | -81.02925 | 13620 ft | 374 kts | 232° |
| 2026-05-06 17:16 | 19.74278 | -81.05024 | 13129 ft | 371 kts | 231° |
| 2026-05-06 17:16 | 19.72645 | -81.07128 | 12639 ft | 367 kts | 231° |
| 2026-05-06 17:16 | 19.71028 | -81.09210 | 12164 ft | 363 kts | 231° |
| 2026-05-06 17:16 | 19.69428 | -81.11270 | 11704 ft | 360 kts | 231° |
| 2026-05-06 17:17 | 19.67843 | -81.13310 | 11236 ft | 356 kts | 230° |
| 2026-05-06 17:17 | 19.66273 | -81.15329 | 10772 ft | 352 kts | 230° |
| 2026-05-06 17:17 | 19.64723 | -81.17323 | 10435 ft | 346 kts | 230° |
| 2026-05-06 17:17 | 19.63218 | -81.19258 | 10266 ft | 333 kts | 230° |
| 2026-05-06 17:18 | 19.61790 | -81.21094 | 10164 ft | 320 kts | 230° |
| 2026-05-06 17:18 | 19.60401 | -81.22878 | 10101 ft | 306 kts | 230° |
| 2026-05-06 17:18 | 19.59072 | -81.24584 | 10048 ft | 293 kts | 230° |
| 2026-05-06 17:18 | 19.57787 | -81.26234 | 10051 ft | 289 kts | 230° |
| 2026-05-06 17:19 | 19.56514 | -81.27868 | 10047 ft | 287 kts | 230° |
| 2026-05-06 17:19 | 19.55254 | -81.29485 | 10048 ft | 287 kts | 230° |
| 2026-05-06 17:19 | 19.53980 | -81.31119 | 10051 ft | 288 kts | 230° |
| 2026-05-06 17:19 | 19.52703 | -81.32756 | 10053 ft | 288 kts | 230° |
| 2026-05-06 17:20 | 19.51426 | -81.34393 | 10003 ft | 288 kts | 230° |
| 2026-05-06 17:20 | 19.50155 | -81.36022 | 9770 ft | 285 kts | 230° |
| 2026-05-06 17:20 | 19.48897 | -81.37635 | 9341 ft | 280 kts | 229° |
| 2026-05-06 17:20 | 19.47658 | -81.39223 | 8688 ft | 278 kts | 229° |
| 2026-05-06 17:21 | 19.46433 | -81.40793 | 8092 ft | 274 kts | 229° |
| 2026-05-06 17:21 | 19.45222 | -81.42344 | 7515 ft | 271 kts | 228° |
| 2026-05-06 17:21 | 19.44022 | -81.43880 | 6880 ft | 271 kts | 228° |
| 2026-05-06 17:21 | 19.42814 | -81.45425 | 6192 ft | 273 kts | 228° |
| 2026-05-06 17:22 | 19.41617 | -81.46957 | 5543 ft | 272 kts | 228° |
| 2026-05-06 17:22 | 19.40417 | -81.48494 | 4972 ft | 269 kts | 227° |
| 2026-05-06 17:22 | 19.39214 | -81.50031 | 4590 ft | 272 kts | 227° |
| 2026-05-06 17:22 | 19.38005 | -81.51576 | 4271 ft | 272 kts | 227° |
| 2026-05-06 17:23 | 19.36797 | -81.53119 | 4051 ft | 268 kts | 227° |
| 2026-05-06 17:23 | 19.35511 | -81.54462 | 3853 ft | 253 kts | 207° |
| 2026-05-06 17:23 | 19.33866 | -81.55010 | 3626 ft | 249 kts | 180° |
| 2026-05-06 17:23 | 19.32186 | -81.54856 | 3493 ft | 237 kts | 165° |
| 2026-05-06 17:24 | 19.30613 | -81.54451 | 3371 ft | 228 kts | 162° |
| 2026-05-06 17:24 | 19.29120 | -81.54040 | 3276 ft | 220 kts | 162° |
| 2026-05-06 17:24 | 19.27676 | -81.53640 | 3204 ft | 207 kts | 160° |
| 2026-05-06 17:24 | 19.26499 | -81.52852 | 2953 ft | 198 kts | 128° |
| 2026-05-06 17:25 | 19.25894 | -81.51609 | 2769 ft | 186 kts | 106° |
| 2026-05-06 17:25 | 19.25808 | -81.50285 | 2527 ft | 177 kts | 83° |
| 2026-05-06 17:25 | 19.26075 | -81.49061 | 2318 ft | 164 kts | 78° |
| 2026-05-06 17:25 | 19.26350 | -81.47942 | 2090 ft | 152 kts | 77° |
| 2026-05-06 17:26 | 19.26605 | -81.46906 | 1914 ft | 139 kts | 78° |
| 2026-05-06 17:26 | 19.26835 | -81.45956 | 1771 ft | 131 kts | 77° |
| 2026-05-06 17:26 | 19.27060 | -81.45029 | 1591 ft | 133 kts | 78° |
| 2026-05-06 17:26 | 19.27286 | -81.44097 | 1405 ft | 128 kts | 78° |
| 2026-05-06 17:27 | 19.27510 | -81.43176 | 1244 ft | 131 kts | 79° |
| 2026-05-06 17:27 | 19.27733 | -81.42250 | 1068 ft | 128 kts | 78° |
| 2026-05-06 17:27 | 19.27954 | -81.41329 | 911 ft | 128 kts | 78° |
| 2026-05-06 17:27 | 19.28177 | -81.40397 | 752 ft | 130 kts | 77° |
| 2026-05-06 17:28 | 19.28404 | -81.39501 | 546 ft | 124 kts | 75° |
| 2026-05-06 17:28 | 19.28643 | -81.38586 | 402 ft | 132 kts | 79° |
| 2026-05-06 17:28 | 19.28850 | -81.37646 | 226 ft | 130 kts | 81° |
| 2026-05-06 17:28 | 19.29060 | -81.36718 | 52 ft | 129 kts | 80° |
| 2026-05-06 17:29 | 19.29251 | -81.35894 | 21 ft | 97 kts | 76° |
| 2026-05-06 17:29 | 19.29377 | -81.35360 | 26 ft | 52 kts | 76° |
| 2026-05-06 17:29 | 19.29429 | -81.35138 | 29 ft | 18 kts | 76° |
| 2026-05-06 17:29 | 19.29458 | -81.35008 | 30 ft | 18 kts | 76° |
| 2026-05-06 17:30 | 19.29487 | -81.34882 | 27 ft | 14 kts | 76° |
| 2026-05-06 17:30 | 19.29521 | -81.34862 | 27 ft | 6 kts | 336° |
| 2026-05-06 17:30 | 19.29550 | -81.34900 | 29 ft | 9 kts | 306° |
| 2026-05-06 17:30 | 19.29557 | -81.34972 | 26 ft | 11 kts | 256° |
| 2026-05-06 17:31 | 19.29539 | -81.35053 | 25 ft | 12 kts | 257° |
| 2026-05-06 17:31 | 19.29519 | -81.35141 | 24 ft | 13 kts | 257° |
| 2026-05-06 17:31 | 19.29498 | -81.35233 | 27 ft | 13 kts | 257° |
| 2026-05-06 17:31 | 19.29477 | -81.35326 | 23 ft | 13 kts | 256° |
| 2026-05-06 17:32 | 19.29456 | -81.35418 | 26 ft | 13 kts | 256° |
| 2026-05-06 17:32 | 19.29434 | -81.35511 | 23 ft | 13 kts | 256° |
| 2026-05-06 17:32 | 19.29430 | -81.35564 | 26 ft | 5 kts | 297° |
| 2026-05-06 17:32 | 19.29461 | -81.35581 | 24 ft | 5 kts | 339° |
| 2026-05-06 17:33 | 19.29491 | -81.35567 | 26 ft | 4 kts | 48° |
| 2026-05-06 17:33 | 19.29509 | -81.35545 | 26 ft | 4 kts | 48° |
| 2026-05-06 17:33 | 19.29537 | -81.35541 | 27 ft | 5 kts | 348° |
| 2026-05-06 17:33 | 19.29569 | -81.35550 | 26 ft | 5 kts | 344° |
| 2026-05-06 17:34 | 19.29591 | -81.35556 | 26 ft | 1 kts | 346° |
| 2026-05-06 17:34 | 19.29592 | -81.35556 | 26 ft | 0 kts | 346° |